Latest Coastal Weather Observations for Mandurah

IDW60701

Issued at 11:22 am WST Monday 22 December 2014 (issued every 10 minutes, with the page automatically refreshed every 10 minutes)

About coastal observations | Map of coastal stations | Coastal observations for WA | Marine services | Other Formats
Station Details ID: 009977 Name: MANDURAH Lat: -32.52 Lon: 115.71 Height: 3.0 m
Data from the previous 72 hours. | See also: Recent months at Mandurah
Date/Time
WST
Temp

°C
Wind Pressure Rain
since 9am
mm
Weather Cloud Vis
km
Sea
Height
m
Swell
Dir
 
Speed
knots
Gust
knots
hPa Trend Height
m
Period
s
Dir
22/11:00am 23.7 S 8 12 1017.6 - 0.0 - - - - - - -
22/10:30am 23.1 S 6 9 1017.9 - 0.0 - - - - - - -
22/10:00am 22.4 SSE 6 9 1017.9 - 0.0 - - - - - - -
22/09:30am 21.4 SSE 5 9 1017.9 - 0.0 - - - - - - -
22/09:00am 21.7 ESE 4 7 1017.9 - 0.0 - - - - - - -
22/08:30am 20.8 ESE 6 9 1018.0 - 0.0 - - - - - - -
22/08:00am 19.7 ESE 5 9 1018.2 - 0.0 - - - - - - -
22/07:30am 18.1 ESE 4 7 1018.1 - 0.0 - - - - - - -
22/07:00am 17.3 SSE 5 7 1018.0 - 0.0 - - - - - - -
22/06:30am 16.8 SSE 5 7 1017.7 - 0.0 - - - - - - -
22/06:00am 16.3 ESE 3 5 1017.4 - 0.0 - - - - - - -
22/05:30am 16.3 SE 4 5 1017.1 - 0.0 - - - - - - -
22/05:00am 16.3 ESE 4 7 1016.7 - 0.0 - - - - - - -
22/04:30am 16.6 ESE 5 7 1016.3 - 0.0 - - - - - - -
22/04:00am 17.1 SE 5 7 1016.1 - 0.0 - - - - - - -
22/03:30am 17.2 ESE 5 8 1015.9 - 0.0 - - - - - - -
22/03:00am 17.5 ESE 5 7 1015.9 - 0.0 - - - - - - -
22/02:30am 18.0 ESE 7 9 1015.8 - 0.0 - - - - - - -
22/02:00am 18.5 ESE 6 9 1015.8 - 0.0 - - - - - - -
22/01:30am 19.1 ESE 7 11 1015.9 - 0.0 - - - - - - -
22/01:00am 19.3 ESE 7 10 1016.1 - 0.0 - - - - - - -
22/12:30am 19.3 SE 5 7 1016.2 - 0.0 - - - - - - -
22/12:00am 19.7 SE 5 7 1016.5 - 0.0 - - - - - - -
 
Date/Time
WST
Temp

°C
Wind Pressure Rain
since 9am
mm
Weather Cloud Vis
km
Sea
Height
m
Swell
Dir
 
Speed
knots
Gust
knots
hPa Trend Height
m
Period
s
Dir
21/11:30pm 20.3 SE 6 8 1016.5 - 0.0 - - - - - - -
21/11:00pm 20.9 SSE 7 12 1016.5 - 0.0 - - - - - - -
21/10:30pm 21.5 SSE 9 13 1016.5 - 0.0 - - - - - - -
21/10:00pm 21.8 SSE 6 9 1016.6 - 0.0 - - - - - - -
21/09:30pm 21.9 S 7 11 1016.3 - 0.0 - - - - - - -
21/09:00pm 21.8 S 6 10 1016.2 - 0.0 - - - - - - -
21/08:30pm 21.8 S 8 11 1015.9 - 0.0 - - - - - - -
21/08:00pm 22.1 S 8 12 1015.7 - 0.0 - - - - - - -
21/07:30pm 22.4 S 8 12 1015.6 - 0.0 - - - - - - -
21/07:00pm 22.9 SSW 10 17 1015.3 - 0.0 - - - - - - -
21/06:30pm 23.0 SSW 10 15 1015.0 - 0.0 - - - - - - -
21/06:00pm 23.7 SSW 12 20 1014.8 - 0.0 - - - - - - -
21/05:30pm 23.9 SSW 14 20 1014.8 - 0.0 - - - - - - -
21/05:00pm 24.1 SSW 13 21 1014.8 - 0.0 - - - - - - -
21/04:30pm 24.3 SSW 15 23 1015.0 - 0.0 - - - - - - -
21/04:00pm 24.7 SSW 14 22 1015.0 - 0.0 - - - - - - -
21/03:30pm 25.1 SSW 14 19 1015.1 - 0.0 - - - - - - -
21/03:00pm 26.1 SSW 13 18 1015.2 - 0.0 - - - - - - -
21/02:30pm 27.2 SW 13 21 1015.3 - 0.0 - - - - - - -
21/02:00pm 27.6 S 7 12 1015.6 - 0.0 - - - - - - -
21/01:30pm 27.1 S 10 18 1016.0 - 0.0 - - - - - - -
21/01:00pm 27.1 S 6 13 1016.3 - 0.0 - - - - - - -
21/12:30pm 26.7 SSE 8 13 1016.6 - 0.0 - - - - - - -
21/12:00pm 26.2 SSE 8 16 1016.7 - 0.0 - - - - - - -
21/11:30am 25.1 SSE 8 15 1017.1 - 0.0 - - - - - - -
21/11:00am 24.9 SSE 7 13 1017.4 - 0.0 - - - - - - -
21/10:30am 23.6 S 9 14 1017.6 - 0.0 - - - - - - -
21/10:00am 23.3 SE 9 18 1017.6 - 0.0 - - - - - - -
21/09:30am 22.4 SE 9 13 1017.8 - 0.0 - - - - - - -
21/09:00am 21.0 SSE 9 15 1017.9 - 0.0 - - - - - - -
21/08:30am 20.9 SE 9 15 1018.1 - 0.0 - - - - - - -
21/08:00am 19.7 SSE 10 15 1018.0 - 0.0 - - - - - - -
21/07:30am 19.0 SE 14 20 1017.8 - 0.0 - - - - - - -
21/07:00am 18.6 SE 12 18 1017.8 - 0.0 - - - - - - -
21/06:30am 18.1 SSE 10 17 1017.6 - 0.0 - - - - - - -
21/06:00am 17.4 SE 10 15 1017.4 - 0.0 - - - - - - -
21/05:30am 17.1 SE 9 11 1017.2 - 0.0 - - - - - - -
21/05:00am 16.7 SE 12 17 1016.9 - 0.0 - - - - - - -
21/04:30am 16.9 SSE 10 15 1016.4 - 0.0 - - - - - - -
21/04:00am 17.2 SSE 11 18 1016.0 - 0.0 - - - - - - -
21/03:30am 17.3 SSE 9 13 1015.9 - 0.0 - - - - - - -
21/03:00am 17.4 SE 10 14 1015.9 - 0.0 - - - - - - -
21/02:30am 17.7 SSE 8 13 1015.9 - 0.0 - - - - - - -
21/02:00am 18.2 SSE 8 13 1015.9 - 0.0 - - - - - - -
21/01:30am 18.6 SSE 9 14 1016.0 - 0.0 - - - - - - -
21/01:00am 18.5 SE 8 11 1016.0 - 0.0 - - - - - - -
21/12:30am 18.6 SE 6 11 1016.0 - 0.0 - - - - - - -
21/12:00am 19.0 SE 9 14 1015.8 - 0.0 - - - - - - -
 
Date/Time
WST
Temp

°C
Wind Pressure Rain
since 9am
mm
Weather Cloud Vis
km
Sea
Height
m
Swell
Dir
 
Speed
knots
Gust
knots
hPa Trend Height
m
Period
s
Dir
20/11:30pm 19.6 SE 15 22 1015.8 - 0.0 - - - - - - -
20/11:00pm 20.2 SE 12 19 1015.6 - 0.0 - - - - - - -
20/10:30pm 20.7 SSE 13 20 1015.3 - 0.0 - - - - - - -
20/10:00pm 21.6 SSE 13 20 1014.8 - 0.0 - - - - - - -
20/09:30pm 22.2 SSE 12 19 1014.5 - 0.0 - - - - - - -
20/09:00pm 22.9 SSE 11 18 1014.1 - 0.0 - - - - - - -
20/08:30pm 23.7 SSE 12 20 1013.3 - 0.0 - - - - - - -
20/08:00pm 24.5 SE 13 20 1012.8 - 0.0 - - - - - - -
20/07:30pm 25.2 SSE 13 20 1012.1 - 0.0 - - - - - - -
20/07:00pm 26.1 SSE 12 20 1011.2 - 0.0 - - - - - - -
20/06:30pm 27.1 SSE 11 19 1010.6 - 0.0 - - - - - - -
20/06:00pm 27.1 S 10 19 1009.8 - 0.0 - - - - - - -
20/05:30pm 25.7 SSW 14 21 1009.4 - 0.0 - - - - - - -
20/05:00pm 25.6 SSW 16 23 1009.2 - 0.0 - - - - - - -
20/04:30pm 26.3 SSW 17 23 1008.8 - 0.0 - - - - - - -
20/04:00pm 26.0 SSW 16 29 1008.6 - 0.0 - - - - - - -
20/03:30pm 26.3 SSW 17 28 1008.5 - 0.0 - - - - - - -
20/03:00pm 26.3 SSW 18 26 1008.5 - 0.0 - - - - - - -
20/02:32pm 26.6 SSW 20 31 1008.4 - 0.0 - - - - - - -
20/02:30pm 26.3 SSW 21 30 1008.4 - 0.0 - - - - - - -
20/02:00pm 26.2 SSW 17 28 1008.5 - 0.0 - - - - - - -
20/01:37pm 26.2 SSW 18 28 1008.5 - 0.0 - - - - - - -
20/01:30pm 26.5 SSW 18 25 1008.6 - 0.0 - - - - - - -
20/01:00pm 25.3 SSW 18 28 1008.6 - 0.0 - - - - - - -
20/12:59pm 25.5 SSW 17 28 1008.6 - 0.0 - - - - - - -
20/12:30pm 25.5 SSW 16 24 1008.6 - 0.0 - - - - - - -
20/12:02pm 25.4 SSW 16 27 1008.7 - 0.0 - - - - - - -
20/12:00pm 25.0 SSW 16 24 1008.7 - 0.0 - - - - - - -
20/11:30am 24.7 SSW 16 25 1008.8 - 0.0 - - - - - - -
20/11:00am 24.4 SSW 16 23 1008.7 - 0.0 - - - - - - -
20/10:30am 23.9 SSW 15 25 1008.7 - 0.0 - - - - - - -
20/10:00am 23.6 SSW 16 22 1008.4 - 0.0 - - - - - - -
20/09:30am 23.1 SSW 15 22 1008.2 - 0.0 - - - - - - -
20/09:00am 23.3 SSW 13 19 1008.1 - 0.0 - - - - - - -
20/08:30am 23.8 SSW 9 15 1007.9 - 0.0 - - - - - - -
20/08:00am 22.8 SSW 10 16 1007.8 - 0.0 - - - - - - -
20/07:30am 21.9 SSW 11 17 1007.7 - 0.0 - - - - - - -
20/07:00am 21.4 S 10 15 1007.6 - 0.0 - - - - - - -
20/06:30am 21.3 SSW 10 16 1007.4 - 0.0 - - - - - - -
20/06:00am 21.6 SSW 10 15 1007.1 - 0.0 - - - - - - -
20/05:30am 22.0 SSW 7 10 1006.7 - 0.0 - - - - - - -
20/05:00am 22.7 SSW 6 8 1006.4 - 0.0 - - - - - - -
20/04:30am 22.6 S 2 3 1006.0 - 0.0 - - - - - - -
20/04:00am 23.7 SSE 3 4 1005.7 - 0.0 - - - - - - -
20/03:30am 23.0 SSW 3 4 1005.8 - 0.0 - - - - - - -
20/03:00am 23.5 SSE 5 7 1005.8 - 0.0 - - - - - - -
20/02:30am 23.6 SSW 3 5 1005.7 - 0.0 - - - - - - -
20/02:00am 23.9 SSE 6 8 1006.0 - 0.0 - - - - - - -
20/01:30am 24.0 SSE 7 10 1006.3 - 0.0 - - - - - - -
20/01:00am 24.1 SSE 7 10 1006.6 - 0.0 - - - - - - -
20/12:30am 23.8 S 9 14 1006.9 - 0.0 - - - - - - -
20/12:00am 24.7 S 7 11 1007.0 - 0.0 - - - - - - -
 
Date/Time
WST
Temp

°C
Wind Pressure Rain
since 9am
mm
Weather Cloud Vis
km
Sea
Height
m
Swell
Dir
 
Speed
knots
Gust
knots
hPa Trend Height
m
Period
s
Dir
19/11:30pm 25.0 SSE 7 10 1007.5 - 0.0 - - - - - - -
19/11:00pm 24.8 S 9 15 1008.1 - 0.0 - - - - - - -
19/10:30pm 24.2 S 11 17 1007.6 - 0.0 - - - - - - -
19/10:00pm 24.6 SSW 12 18 1008.0 - 0.0 - - - - - - -
19/09:30pm 25.6 S 11 17 1007.9 - 0.0 - - - - - - -
19/09:00pm 25.9 S 11 18 1007.7 - 0.0 - - - - - - -
19/08:30pm 26.1 S 13 22 1007.4 - 0.0 - - - - - - -
19/08:00pm 26.6 S 12 19 1007.0 - 0.0 - - - - - - -
19/07:30pm 27.5 S 13 19 1006.7 - 0.0 - - - - - - -
19/07:00pm 27.5 S 11 16 1006.6 - 0.0 - - - - - - -
19/06:30pm 28.3 SSW 12 18 1006.5 - 0.0 - - - - - - -
19/06:00pm 29.7 SSW 14 21 1006.3 - 0.0 - - - - - - -
19/05:30pm 30.7 SSW 15 23 1006.3 - 0.0 - - - - - - -
19/05:00pm 31.6 SSW 13 21 1006.3 - 0.0 - - - - - - -
19/04:30pm 32.1 SSW 14 19 1006.6 - 0.0 - - - - - - -
19/04:00pm 32.9 SSW 15 20 1007.1 - 0.0 - - - - - - -
19/03:30pm 33.8 SSW 11 17 1007.5 - 0.0 - - - - - - -
19/03:00pm 33.6 SSW 13 19 1008.0 - 0.0 - - - - - - -
19/02:30pm 34.2 SSW 14 19 1008.4 - 0.0 - - - - - - -
19/02:00pm 34.4 SSW 12 17 1008.9 - 0.0 - - - - - - -
19/01:30pm 34.8 SSW 10 15 1009.2 - 0.0 - - - - - - -
19/01:00pm 35.5 SSW 10 15 1009.6 - 0.0 - - - - - - -
19/12:30pm 36.0 S 8 11 1010.0 - 0.0 - - - - - - -
19/12:00pm 35.4 S 8 11 1010.3 - 0.0 - - - - - - -
19/11:30am 34.9 S 6 10 1010.7 - 0.0 - - - - - - -

Other Formats:

Comma delimited format used in spreadsheet applications
http://www.bom.gov.au/fwo/IDW60701/IDW60701.94605.axf

JavaScript Object Notation format (JSON) in row-major order
http://www.bom.gov.au/fwo/IDW60701/IDW60701.94605.json